Time;durP1;ratioP1;P1;durP2;ratioP2;P2;SDS_P1;SDS_P2;PMS_P1;PMS_P2;Temp;Humidity;BMP_temperature;BMP_pressure;BME280_temperature;BME280_humidity;BME280_pressure;Samples;Min_cycle;Max_cycle;Signal;HPM_P1;HPM_P2
2022/12/15 00:39:09;;;;;;;23.80;10.90;;;;;;;-6.87;89.76;100692.81;5129224;27;20042;-73
2022/12/15 00:41:34;;;;;;;24.20;11.48;;;;;;;-6.90;89.53;100696.94;5150458;27;20035;-73
2022/12/15 00:44:00;;;;;;;24.23;12.30;;;;;;;-6.92;89.89;100702.91;5117904;27;20050;-73
2022/12/15 00:50:50;;;;;;;28.45;10.93;;;;;;;-6.87;90.26;100707.38;5109523;27;20397;-73
2022/12/15 01:21:58;;;;;;;25.58;12.85;;;;;;;-6.62;90.14;100711.97;5119882;27;20066;-78
2022/12/15 01:24:23;;;;;;;28.52;13.63;;;;;;;-6.62;90.35;100715.41;5135532;27;20079;-78
2022/12/15 01:26:49;;;;;;;21.23;12.73;;;;;;;-6.61;90.69;100716.28;5119471;27;20031;-78
2022/12/15 01:29:14;;;;;;;21.77;11.18;;;;;;;-6.60;90.83;100723.19;5127926;27;20102;-78
2022/12/15 01:31:40;;;;;;;20.40;11.98;;;;;;;-6.59;90.60;100725.84;5135066;27;20035;-78
2022/12/15 01:34:06;;;;;;;24.90;11.60;;;;;;;-6.59;90.07;100731.00;5124758;27;20069;-78
2022/12/15 01:36:31;;;;;;;26.88;12.65;;;;;;;-6.60;89.89;100728.34;5111500;27;20043;-78
2022/12/15 01:38:57;;;;;;;22.73;11.02;;;;;;;-6.64;89.61;100732.47;5115165;27;20039;-78
2022/12/15 01:41:22;;;;;;;25.52;13.35;;;;;;;-6.67;89.53;100734.06;5116439;27;20497;-78
2022/12/15 01:43:47;;;;;;;23.77;12.07;;;;;;;-6.68;89.65;100747.72;5130283;27;20066;-78
2022/12/15 01:46:16;;;;;;;20.55;11.75;;;;;;;-6.71;89.39;100743.31;5129707;27;20406;-78
2022/12/15 01:48:45;;;;;;;22.27;11.93;;;;;;;-6.74;89.29;100740.59;5149415;27;20121;-78
2022/12/15 01:51:27;;;;;;;22.95;13.02;;;;;;;-6.75;89.31;100736.25;5147016;27;20064;-78
2022/12/15 01:54:10;;;;;;;21.67;12.55;;;;;;;-6.77;89.58;100745.63;5135898;27;20438;-78
2022/12/15 01:56:43;;;;;;;18.77;10.40;;;;;;;-6.78;88.96;100739.56;5116369;27;20043;-78
2022/12/15 01:59:24;;;;;;;22.40;12.27;;;;;;;-6.81;89.25;100738.56;5134835;27;20550;-78
2022/12/15 02:01:49;;;;;;;24.80;12.07;;;;;;;-6.85;88.76;100740.09;5131602;27;20062;-78
2022/12/15 02:04:17;;;;;;;25.30;11.70;;;;;;;-6.89;89.27;100742.47;5153703;27;20066;-78
2022/12/15 02:06:42;;;;;;;25.60;11.80;;;;;;;-6.94;88.75;100739.69;5154532;27;20459;-78
2022/12/15 02:09:08;;;;;;;26.23;12.38;;;;;;;-6.96;88.81;100742.19;5118943;27;20027;-78
2022/12/15 02:11:48;;;;;;;23.63;11.70;;;;;;;-6.96;89.30;100746.44;5154737;27;20093;-78
2022/12/15 02:14:24;;;;;;;21.27;12.55;;;;;;;-6.95;90.75;100754.25;5148046;27;20027;-78
2022/12/15 02:17:14;;;;;;;21.02;12.38;;;;;;;-6.90;90.89;100762.16;5150095;27;20039;-78
2022/12/15 02:20:07;;;;;;;22.92;12.52;;;;;;;-6.88;90.67;100763.13;5148299;27;20035;-78
2022/12/15 02:23:00;;;;;;;21.45;12.15;;;;;;;-6.88;90.58;100767.41;5151401;27;20030;-78
2022/12/15 02:26:01;;;;;;;23.85;11.98;;;;;;;-6.87;90.62;100766.56;5148816;27;20027;-78
2022/12/15 02:28:35;;;;;;;21.33;11.07;;;;;;;-6.86;90.25;100764.09;5149419;27;20027;-78
2022/12/15 02:33:59;;;;;;;26.30;13.82;;;;;;;-6.86;90.88;100764.09;5152757;27;20033;-78
2022/12/15 02:36:31;;;;;;;26.92;14.30;;;;;;;-6.80;90.82;100768.63;5133620;27;20031;-78
2022/12/15 02:38:57;;;;;;;24.08;12.30;;;;;;;-6.79;90.92;100768.72;5154000;27;20043;-78
2022/12/15 02:41:41;;;;;;;30.33;14.20;;;;;;;-6.79;90.68;100773.88;5134980;27;20054;-78
2022/12/15 02:44:16;;;;;;;24.83;14.63;;;;;;;-6.81;90.91;100764.31;5153824;27;20070;-78
2022/12/15 02:47:20;;;;;;;22.50;11.35;;;;;;;-6.80;90.41;100769.53;5152250;27;20034;-78
2022/12/15 02:50:05;;;;;;;24.27;12.60;;;;;;;-6.83;90.25;100765.91;5134180;27;20027;-78
2022/12/15 02:52:49;;;;;;;23.50;12.88;;;;;;;-6.87;90.25;100769.16;5133433;27;20039;-78
2022/12/15 02:55:34;;;;;;;26.92;13.73;;;;;;;-6.91;90.06;100773.28;5129007;27;20478;-78
2022/12/15 02:58:02;;;;;;;23.35;12.10;;;;;;;-6.96;90.08;100777.34;5152935;27;20113;-78
2022/12/15 03:00:33;;;;;;;21.90;11.02;;;;;;;-7.01;89.77;100774.53;5124566;27;20386;-78
2022/12/15 03:02:59;;;;;;;27.55;12.35;;;;;;;-7.02;89.58;100787.31;5152535;27;20061;-78
2022/12/15 03:05:25;;;;;;;17.30;10.55;;;;;;;-7.11;89.67;100779.19;5152701;27;20079;-78
2022/12/15 03:07:53;;;;;;;22.67;12.10;;;;;;;-7.11;89.43;100781.75;5152953;27;20367;-78
2022/12/15 03:10:22;;;;;;;21.83;12.80;;;;;;;-7.14;89.84;100785.06;5150731;27;20021;-78
2022/12/15 03:12:49;;;;;;;17.95;10.57;;;;;;;-7.18;89.63;100785.72;5153198;27;20065;-78
2022/12/15 03:15:15;;;;;;;29.08;12.23;;;;;;;-7.21;89.48;100780.44;5114350;27;20031;-78
2022/12/15 03:17:40;;;;;;;22.73;11.77;;;;;;;-7.26;89.25;100779.34;5131974;27;20027;-78
2022/12/15 03:20:07;;;;;;;20.75;11.25;;;;;;;-7.26;89.21;100787.06;5132165;27;20023;-78
2022/12/15 03:22:34;;;;;;;24.98;13.05;;;;;;;-7.29;89.15;100792.94;5148140;27;20039;-78
2022/12/15 03:25:00;;;;;;;23.42;12.65;;;;;;;-7.32;89.65;100794.44;5152991;27;20033;-73
2022/12/15 03:27:25;;;;;;;21.17;11.38;;;;;;;-7.36;89.68;100794.31;5105084;27;20035;-73
2022/12/15 03:29:50;;;;;;;22.50;13.35;;;;;;;-7.36;90.29;100791.72;5133326;27;20049;-73
2022/12/15 03:32:16;;;;;;;22.85;11.57;;;;;;;-7.31;90.50;100794.53;5135894;27;20030;-73
2022/12/15 03:34:41;;;;;;;26.60;11.38;;;;;;;-7.28;90.49;100804.97;5157474;27;20038;-73
2022/12/15 03:37:07;;;;;;;23.17;12.93;;;;;;;-7.28;90.27;100804.97;5131900;27;20084;-74
2022/12/15 03:39:32;;;;;;;22.70;11.65;;;;;;;-7.32;90.08;100803.03;5127351;27;20027;-73
2022/12/15 03:41:58;;;;;;;22.85;11.02;;;;;;;-7.29;90.39;100810.94;5113386;27;20464;-73
2022/12/15 03:44:23;;;;;;;28.27;12.25;;;;;;;-7.31;90.08;100811.66;5136207;27;20121;-73
2022/12/15 03:46:49;;;;;;;25.80;13.82;;;;;;;-7.28;90.93;100812.69;5157089;27;20034;-73
2022/12/15 03:49:14;;;;;;;25.00;12.68;;;;;;;-7.22;91.79;100818.16;5159016;27;20063;-78
2022/12/15 03:51:40;;;;;;;26.13;13.98;;;;;;;-7.19;91.64;100822.56;5120011;27;20023;-79
2022/12/15 03:54:06;;;;;;;23.77;11.93;;;;;;;-7.19;91.40;100815.72;5155839;27;20051;-74
2022/12/15 03:56:32;;;;;;;24.63;13.18;;;;;;;-7.20;90.87;100820.78;5137610;27;20042;-74
2022/12/15 03:58:57;;;;;;;22.45;12.85;;;;;;;-7.21;91.02;100822.47;5137737;27;20026;-74
2022/12/15 04:01:27;;;;;;;26.40;13.02;;;;;;;-7.24;90.94;100806.03;5136255;27;20091;-74
2022/12/15 04:03:53;;;;;;;28.27;12.77;;;;;;;-7.25;91.07;100807.69;5156688;27;20038;-74
2022/12/15 04:06:19;;;;;;;26.05;13.27;;;;;;;-7.21;91.75;100819.91;5131390;27;20026;-74
2022/12/15 04:08:44;;;;;;;32.30;14.02;;;;;;;-7.19;92.03;100810.56;5110865;27;20091;-74
2022/12/15 04:11:09;;;;;;;23.55;13.48;;;;;;;-7.14;91.96;100803.09;5132232;27;20137;-74
2022/12/15 04:13:35;;;;;;;24.25;13.18;;;;;;;-7.14;91.62;100805.66;5130698;27;20030;-73
2022/12/15 04:16:01;;;;;;;25.08;12.70;;;;;;;-7.17;91.56;100805.47;5130631;27;20493;-74
2022/12/15 04:18:27;;;;;;;25.70;12.13;;;;;;;-7.15;91.63;100811.59;5122621;27;20374;-74
2022/12/15 04:20:52;;;;;;;25.60;13.95;;;;;;;-7.17;91.41;100810.63;5153205;27;20039;-74
2022/12/15 04:23:18;;;;;;;28.10;12.48;;;;;;;-7.20;91.31;100815.63;5156696;27;20031;-74
2022/12/15 05:31:54;;;;;;;29.42;13.38;;;;;;;-7.02;92.70;100837.16;5152802;27;20088;-79
2022/12/15 05:34:22;;;;;;;28.75;15.43;;;;;;;-7.00;92.99;100834.63;5150664;27;20023;-79
2022/12/15 05:36:49;;;;;;;26.13;14.07;;;;;;;-6.99;93.00;100837.28;5116434;27;20435;-79
2022/12/15 05:39:15;;;;;;;16.42;9.07;;;;;;;-6.98;92.89;100840.72;5155128;27;20133;-79
2022/12/15 05:41:40;;;;;;;31.40;14.73;;;;;;;-6.94;93.50;100843.53;5155023;27;20498;-79
2022/12/15 05:44:08;;;;;;;29.60;13.90;;;;;;;-6.94;94.00;100846.09;5153896;27;20038;-79
2022/12/15 05:46:33;;;;;;;25.77;14.52;;;;;;;-6.94;93.21;100840.09;5150322;27;20069;-79
2022/12/15 05:49:02;;;;;;;30.42;15.30;;;;;;;-6.98;92.81;100844.19;5135142;27;20069;-79
2022/12/15 05:51:28;;;;;;;25.73;15.60;;;;;;;-7.01;92.32;100845.75;5153547;27;20486;-79
2022/12/15 05:53:53;;;;;;;24.83;14.85;;;;;;;-7.08;92.01;100852.28;5153695;27;20030;-79
2022/12/15 05:56:19;;;;;;;29.15;15.65;;;;;;;-7.14;91.55;100849.41;5135983;27;20114;-79
2022/12/15 05:58:44;;;;;;;27.98;15.30;;;;;;;-7.23;91.18;100848.94;5152347;27;20050;-79
2022/12/15 06:01:16;;;;;;;27.48;15.32;;;;;;;-7.26;91.53;100853.94;5136019;27;20070;-79
2022/12/15 06:03:42;;;;;;;27.98;13.60;;;;;;;-7.30;91.78;100855.47;5150977;27;20126;-79
2022/12/15 06:06:09;;;;;;;33.70;15.40;;;;;;;-7.31;91.70;100855.41;5144779;27;20110;-79
2022/12/15 06:08:37;;;;;;;28.20;14.80;;;;;;;-7.33;92.14;100857.00;5136174;27;20106;-79
2022/12/15 06:11:03;;;;;;;25.17;13.65;;;;;;;-7.36;91.94;100866.34;5134194;27;20486;-79
2022/12/15 06:13:30;;;;;;;31.27;14.55;;;;;;;-7.38;91.63;100874.78;5116077;27;20043;-79
2022/12/15 06:16:04;;;;;;;22.42;13.05;;;;;;;-7.42;91.70;100883.16;5137014;27;20057;-79
2022/12/15 06:18:36;;;;;;;30.50;13.77;;;;;;;-7.43;92.29;100876.25;5134536;27;20027;-79
2022/12/15 06:21:05;;;;;;;29.45;13.68;;;;;;;-7.46;92.21;100869.25;5144160;27;20038;-79
2022/12/15 06:23:34;;;;;;;32.95;15.07;;;;;;;-7.43;92.40;100878.81;5134515;27;20079;-79
2022/12/15 06:26:07;;;;;;;28.23;14.80;;;;;;;-7.46;92.30;100874.41;5120453;27;20109;-79
2022/12/15 06:28:33;;;;;;;29.42;15.23;;;;;;;-7.47;92.24;100876.88;5122622;27;20163;-79
2022/12/15 06:31:02;;;;;;;31.48;15.20;;;;;;;-7.48;92.33;100882.84;5118844;27;20122;-79
2022/12/15 06:33:28;;;;;;;31.83;14.30;;;;;;;-7.49;92.48;100874.25;5135043;27;20114;-79
2022/12/15 06:35:54;;;;;;;34.15;17.08;;;;;;;-7.53;92.40;100872.31;5130338;27;20506;-79
2022/12/15 06:38:19;;;;;;;30.38;16.25;;;;;;;-7.52;92.47;100873.19;5134210;27;20110;-79
2022/12/15 06:40:58;;;;;;;28.40;16.38;;;;;;;-7.56;92.91;100867.03;5134666;27;20491;-79
2022/12/15 06:43:24;;;;;;;33.08;17.42;;;;;;;-7.58;92.46;100872.06;5134253;27;20063;-79
2022/12/15 06:45:50;;;;;;;31.90;13.45;;;;;;;-7.60;92.48;100873.69;5114767;27;20397;-79
2022/12/15 06:48:16;;;;;;;41.35;15.30;;;;;;;-7.62;92.23;100870.16;5133135;27;20051;-79
2022/12/15 06:50:42;;;;;;;29.20;15.73;;;;;;;-7.63;92.34;100877.78;5143190;27;20033;-79
2022/12/15 06:53:08;;;;;;;34.90;16.67;;;;;;;-7.62;92.71;100876.97;5153674;27;20113;-79
2022/12/15 06:55:33;;;;;;;31.95;14.75;;;;;;;-7.63;93.05;100877.78;5134408;27;20031;-79
2022/12/15 06:57:59;;;;;;;31.27;16.23;;;;;;;-7.66;92.95;100872.50;5115577;27;20022;-79
2022/12/15 07:00:26;;;;;;;34.55;17.45;;;;;;;-7.64;93.59;100871.78;5139149;27;20027;-78
2022/12/15 07:02:52;;;;;;;34.05;18.02;;;;;;;-7.60;94.02;100875.38;5127909;27;20533;-79
2022/12/15 07:05:18;;;;;;;30.48;15.38;;;;;;;-7.58;93.88;100877.22;5154587;27;20039;-79
2022/12/15 07:07:44;;;;;;;42.15;17.48;;;;;;;-7.58;93.80;100872.06;5154347;27;20022;-79
2022/12/15 07:10:10;;;;;;;33.65;16.05;;;;;;;-7.58;93.63;100876.34;5148902;27;20058;-79
2022/12/15 07:12:35;;;;;;;25.50;14.88;;;;;;;-7.61;93.66;100884.78;5136051;27;20533;-79
2022/12/15 07:15:01;;;;;;;30.85;16.40;;;;;;;-7.64;93.18;100884.63;5140548;27;20027;-79
2022/12/15 07:17:28;;;;;;;29.52;15.48;;;;;;;-7.64;92.85;100894.00;5114139;27;20039;-79
2022/12/15 07:19:54;;;;;;;37.55;18.08;;;;;;;-7.65;93.70;100892.25;5130777;27;20042;-79
2022/12/15 07:22:20;;;;;;;33.40;17.63;;;;;;;-7.63;93.81;100880.38;5138102;27;20050;-79
2022/12/15 07:24:46;;;;;;;34.45;17.50;;;;;;;-7.62;93.56;100893.28;5144353;27;20088;-79
2022/12/15 07:27:13;;;;;;;31.02;16.52;;;;;;;-7.63;93.99;100896.69;5101333;28;20039;-79
2022/12/15 07:29:38;;;;;;;34.65;16.90;;;;;;;-7.62;94.28;100901.00;5125635;28;20015;-79
2022/12/15 07:32:04;;;;;;;29.15;15.75;;;;;;;-7.61;94.49;100900.22;5134942;27;20045;-80
2022/12/15 07:34:29;;;;;;;34.97;18.13;;;;;;;-7.61;94.35;100897.66;5114857;28;20039;-79
2022/12/15 07:36:55;;;;;;;38.17;17.80;;;;;;;-7.61;94.50;100899.34;5134855;27;20035;-79
2022/12/15 07:39:20;;;;;;;36.53;16.85;;;;;;;-7.59;94.84;100906.31;5114526;28;20046;-79
2022/12/15 07:41:46;;;;;;;38.72;19.27;;;;;;;-7.60;94.95;100898.53;5134413;27;20054;-79
2022/12/15 07:44:14;;;;;;;27.77;14.10;;;;;;;-7.60;94.91;100890.81;5110286;27;20525;-79
2022/12/15 07:46:40;;;;;;;38.10;17.95;;;;;;;-7.58;94.94;100894.34;5141831;27;20070;-79
2022/12/15 07:49:05;;;;;;;32.25;16.40;;;;;;;-7.57;94.84;100898.66;5132934;27;20113;-78
2022/12/15 07:51:31;;;;;;;34.45;15.80;;;;;;;-7.51;94.63;100908.41;5111600;28;20401;-79
2022/12/15 07:53:56;;;;;;;28.55;15.90;;;;;;;-7.52;94.68;100910.09;5118976;28;20032;-78
2022/12/15 07:56:22;;;;;;;33.00;16.98;;;;;;;-7.51;94.72;100913.56;5118383;27;20031;-78
2022/12/15 07:58:48;;;;;;;32.75;17.73;;;;;;;-7.49;94.74;100912.84;5098129;28;20398;-78
2022/12/15 08:01:14;;;;;;;40.92;18.70;;;;;;;-7.48;94.66;100912.03;5110170;27;20110;-79
2022/12/15 08:03:40;;;;;;;31.65;16.77;;;;;;;-7.44;95.25;100923.34;5118711;27;20033;-78
2022/12/15 08:06:07;;;;;;;31.08;16.80;;;;;;;-7.41;95.37;100926.09;5152345;27;20031;-79
2022/12/15 08:08:33;;;;;;;33.97;17.52;;;;;;;-7.38;95.75;100926.25;5134157;27;20046;-79
2022/12/15 08:11:02;;;;;;;29.85;16.48;;;;;;;-7.33;95.51;100924.78;5107160;28;20475;-79
2022/12/15 08:13:28;;;;;;;36.45;19.42;;;;;;;-7.32;95.32;100926.53;5134180;27;20467;-79
2022/12/15 08:15:53;;;;;;;33.22;17.88;;;;;;;-7.28;95.42;100930.16;5135395;27;20031;-79
2022/12/15 08:18:19;;;;;;;41.75;17.90;;;;;;;-7.26;95.53;100926.00;5119687;27;20114;-79
2022/12/15 08:20:45;;;;;;;35.58;18.17;;;;;;;-7.22;95.81;100928.81;5155276;27;21204;-79
2022/12/15 08:23:10;;;;;;;32.05;17.30;;;;;;;-7.19;95.40;100928.94;5116992;27;20096;-79
2022/12/15 08:25:36;;;;;;;32.65;17.20;;;;;;;-7.15;95.69;100933.44;5135341;27;20393;-79
2022/12/15 08:28:01;;;;;;;29.35;16.58;;;;;;;-7.13;96.04;100934.41;5125324;27;20470;-79
2022/12/15 08:30:27;;;;;;;28.15;16.40;;;;;;;-7.07;95.84;100938.09;5141425;27;20107;-79
2022/12/15 08:32:52;;;;;;;34.88;15.82;;;;;;;-7.05;95.90;100933.91;5124618;27;20030;-79
2022/12/15 08:35:18;;;;;;;34.58;18.83;;;;;;;-7.05;95.58;100927.06;5117909;27;20041;-79
2022/12/15 08:37:44;;;;;;;41.38;19.08;;;;;;;-6.99;96.06;100932.53;5138010;27;20046;-79
2022/12/15 08:40:10;;;;;;;40.72;17.48;;;;;;;-6.93;96.15;100934.53;5118347;27;20028;-80
2022/12/15 08:42:36;;;;;;;28.90;14.88;;;;;;;-6.87;95.76;100941.66;5106335;28;20055;-79
2022/12/15 08:45:03;;;;;;;30.35;16.52;;;;;;;-6.81;96.03;100939.41;5117219;27;20046;-79
2022/12/15 08:47:29;;;;;;;35.67;17.95;;;;;;;-6.74;96.41;100938.91;5123611;27;20020;-79
2022/12/15 08:49:55;;;;;;;37.35;20.25;;;;;;;-6.67;96.83;100945.25;5114438;28;20703;-79
2022/12/15 08:52:21;;;;;;;36.70;18.40;;;;;;;-6.60;96.93;100949.84;5114545;27;20039;-79
2022/12/15 08:54:46;;;;;;;27.63;16.77;;;;;;;-6.55;96.73;100946.72;5124086;27;20039;-79
2022/12/15 08:57:12;;;;;;;36.50;18.88;;;;;;;-6.49;96.82;100957.31;5122106;27;20015;-79
2022/12/15 08:59:38;;;;;;;38.85;21.27;;;;;;;-6.42;97.17;100955.03;5122885;27;20034;-80
2022/12/15 09:02:04;;;;;;;39.10;20.10;;;;;;;-6.35;96.90;100957.13;5130431;27;20041;-79
2022/12/15 09:04:29;;;;;;;34.53;17.42;;;;;;;-6.29;97.03;100953.13;5128462;27;20035;-80
2022/12/15 09:06:55;;;;;;;35.00;17.67;;;;;;;-6.26;97.30;100952.38;5126585;27;20066;-80
2022/12/15 09:09:21;;;;;;;40.92;19.30;;;;;;;-6.16;96.92;100959.72;5114370;28;20095;-80
2022/12/15 09:11:47;;;;;;;36.47;18.98;;;;;;;-6.09;97.05;100959.22;5112559;27;20032;-80
2022/12/15 09:14:13;;;;;;;27.45;15.93;;;;;;;-5.99;96.93;100967.38;5133095;27;20547;-79
2022/12/15 09:16:39;;;;;;;36.13;20.20;;;;;;;-5.95;96.91;100957.28;5125222;27;20038;-80
2022/12/15 09:19:06;;;;;;;43.25;20.35;;;;;;;-5.84;97.40;100960.31;5112220;28;20020;-80
2022/12/15 09:21:31;;;;;;;44.90;20.75;;;;;;;-5.76;97.28;100963.25;5103981;27;20470;-80
2022/12/15 09:24:00;;;;;;;39.25;22.88;;;;;;;-5.70;97.13;100972.16;5127148;27;20033;-80
2022/12/15 09:26:28;;;;;;;46.70;20.27;;;;;;;-5.64;97.01;100977.63;5125682;27;20031;-80
2022/12/15 09:28:54;;;;;;;41.63;20.98;;;;;;;-5.55;96.64;100977.13;5111977;28;20077;-79
2022/12/15 09:31:27;;;;;;;32.63;18.65;;;;;;;-5.49;96.59;100982.59;5116189;27;20031;-80
2022/12/15 09:33:55;;;;;;;37.30;18.77;;;;;;;-5.43;96.42;100977.69;5123918;27;20097;-80
2022/12/15 09:36:21;;;;;;;40.05;17.35;;;;;;;-5.39;96.01;100986.44;5121328;27;20055;-80
2022/12/15 09:38:46;;;;;;;48.33;21.73;;;;;;;-5.31;96.29;100992.84;5118032;27;20039;-80
2022/12/15 09:41:12;;;;;;;35.17;19.63;;;;;;;-5.24;96.56;100991.44;5130911;27;20054;-79
2022/12/15 09:43:45;;;;;;;41.60;19.75;;;;;;;-5.21;96.34;100989.84;5140957;27;20103;-80
2022/12/15 09:46:29;;;;;;;38.03;20.42;;;;;;;-5.10;96.25;101002.34;5123719;27;20467;-80
2022/12/15 09:49:00;;;;;;;43.10;21.50;;;;;;;-5.04;96.72;101003.50;5146197;27;20446;-80
2022/12/15 09:51:43;;;;;;;37.63;21.58;;;;;;;-4.89;96.01;101002.41;5124361;27;20127;-81
2022/12/15 09:54:10;;;;;;;32.80;19.35;;;;;;;-4.81;95.83;101017.41;5131684;27;20038;-81
2022/12/15 09:56:41;;;;;;;36.05;20.90;;;;;;;-4.74;95.75;101007.34;5146377;27;20060;-81
2022/12/15 09:59:22;;;;;;;41.33;21.10;;;;;;;-4.67;96.10;101006.75;5154171;27;20034;-81
2022/12/15 10:02:02;;;;;;;36.57;21.30;;;;;;;-4.57;95.86;101006.34;5154885;27;20488;-81
2022/12/15 10:04:46;;;;;;;37.83;21.38;;;;;;;-4.50;95.94;101004.88;5149397;27;20046;-81
2022/12/15 10:07:42;;;;;;;39.53;19.10;;;;;;;-4.42;95.83;101003.53;5132763;27;20083;-81
2022/12/15 10:10:33;;;;;;;36.75;18.65;;;;;;;-4.32;95.87;101016.88;5152845;27;20022;-81
2022/12/15 10:13:09;;;;;;;49.88;21.73;;;;;;;-4.24;95.74;101005.97;5152850;27;20030;-82
2022/12/15 10:15:46;;;;;;;39.33;21.17;;;;;;;-4.12;95.55;101014.22;5152779;27;20030;-81
2022/12/15 10:18:25;;;;;;;41.55;22.40;;;;;;;-4.04;95.08;101005.06;5146775;27;20042;-81
2022/12/15 10:20:52;;;;;;;47.95;23.52;;;;;;;-3.97;95.02;101001.03;5132967;27;20035;-81
2022/12/15 10:23:18;;;;;;;45.92;26.05;;;;;;;-3.88;94.50;100998.81;5149012;27;20047;-81
2022/12/15 10:25:53;;;;;;;37.05;21.20;;;;;;;-3.80;94.66;100992.22;5152275;27;20038;-81
2022/12/15 10:28:45;;;;;;;33.78;19.65;;;;;;;-3.71;94.60;100996.84;5147178;27;20031;-81
2022/12/15 10:31:23;;;;;;;33.40;18.60;;;;;;;-3.60;93.71;100997.28;5151701;27;20106;-81
2022/12/15 10:33:56;;;;;;;38.95;20.17;;;;;;;-3.52;93.86;100994.13;5149275;27;20117;-82
2022/12/15 10:36:22;;;;;;;38.38;21.15;;;;;;;-3.47;94.08;100994.31;5152056;27;20038;-82
2022/12/15 10:38:48;;;;;;;47.15;23.02;;;;;;;-3.40;93.77;100998.00;5132885;27;20163;-82
2022/12/15 10:41:16;;;;;;;42.05;22.60;;;;;;;-3.33;93.99;100992.25;5132909;27;20087;-82
2022/12/15 10:43:44;;;;;;;43.85;24.88;;;;;;;-3.27;93.50;100995.03;5151488;27;20130;-82
2022/12/15 10:46:21;;;;;;;38.83;23.10;;;;;;;-3.16;93.19;100995.44;5154281;27;20035;-82
2022/12/15 10:48:52;;;;;;;41.90;22.52;;;;;;;-3.11;93.43;100999.97;5132140;27;20035;-82
2022/12/15 10:51:36;;;;;;;48.28;23.10;;;;;;;-3.01;92.98;101001.16;5146999;27;20391;-83
2022/12/15 10:54:03;;;;;;;33.85;19.85;;;;;;;-2.94;93.25;101000.56;5127326;27;20035;-83
2022/12/15 10:56:30;;;;;;;32.70;19.88;;;;;;;-2.83;92.61;101000.94;5115511;27;20027;-83
2022/12/15 10:58:58;;;;;;;37.30;21.95;;;;;;;-2.78;92.86;100993.31;5143616;27;20030;-83
2022/12/15 11:01:29;;;;;;;45.17;23.48;;;;;;;-2.69;92.00;100997.13;5154934;27;20026;-83
2022/12/15 11:03:55;;;;;;;34.80;20.65;;;;;;;-2.64;91.87;100994.69;5142959;27;20041;-82
2022/12/15 11:06:27;;;;;;;42.88;23.52;;;;;;;-2.57;92.18;100998.34;5147012;27;20375;-83
2022/12/15 11:08:56;;;;;;;37.00;19.15;;;;;;;-2.48;92.26;100996.06;5133425;27;20559;-83
2022/12/15 11:14:24;;;;;;;38.90;20.80;;;;;;;-2.34;92.21;100980.97;5133544;27;20455;-77
2022/12/15 11:16:54;;;;;;;;;;;;;;;-2.25;92.06;100987.34;5123379;27;20423;-77
2022/12/15 11:19:48;;;;;;;43.30;22.20;;;;;;;-2.17;91.71;100987.59;5138362;27;19938;-77
2022/12/15 11:22:43;;;;;;;40.42;21.67;;;;;;;-2.12;91.98;100982.56;5129713;27;20026;-79
2022/12/15 11:25:34;;;;;;;37.27;20.33;;;;;;;-2.03;92.24;100980.22;5116642;27;20418;-79
2022/12/15 11:28:04;;;;;;;44.85;23.77;;;;;;;-2.02;91.15;100972.50;5115934;27;20484;-78
2022/12/15 11:30:41;;;;;;;39.42;21.77;;;;;;;-1.96;91.52;100975.25;5131355;27;20113;-79
2022/12/15 11:33:08;;;;;;;33.92;19.88;;;;;;;-1.89;91.48;100983.25;5130418;28;20038;-79
2022/12/15 11:36:08;;;;;;;39.63;20.58;;;;;;;-1.88;91.19;100987.59;5114689;28;20035;-79
2022/12/15 11:38:43;;;;;;;37.85;20.65;;;;;;;-1.81;92.13;100990.44;5106265;27;20477;-79
2022/12/15 11:41:52;;;;;;;38.05;21.05;;;;;;;-1.65;92.19;100990.91;5115872;27;20019;-78
2022/12/15 11:44:36;;;;;;;32.50;19.48;;;;;;;-1.56;92.33;100979.09;5149316;27;20053;-78
2022/12/15 11:47:17;;;;;;;40.15;20.67;;;;;;;-1.40;91.48;100977.81;5133102;27;20031;-78
2022/12/15 11:50:08;;;;;;;33.47;20.17;;;;;;;-1.28;91.72;100985.09;5106156;27;20038;-78
2022/12/15 11:52:49;;;;;;;33.58;19.92;;;;;;;-1.25;91.22;100977.38;5126567;27;20280;-78
2022/12/15 11:55:52;;;;;;;39.65;21.05;;;;;;;-1.17;90.96;100983.66;5116826;27;20027;-78
2022/12/15 11:58:36;;;;;;;35.70;19.50;;;;;;;-1.12;90.98;100983.78;5146834;27;20023;-78
2022/12/15 12:01:12;;;;;;;41.17;21.65;;;;;;;-1.09;90.14;100979.56;5124137;27;20035;-77
2022/12/15 12:04:06;;;;;;;37.42;22.38;;;;;;;-1.00;89.88;100984.13;5132343;27;20035;-77
2022/12/15 12:06:35;;;;;;;36.15;20.90;;;;;;;-0.97;88.94;100973.81;5144968;27;20034;-76
2022/12/15 12:09:29;;;;;;;33.65;19.15;;;;;;;-0.87;88.47;100973.25;5132595;27;20059;-77
2022/12/15 12:12:06;;;;;;;35.95;20.75;;;;;;;-0.85;87.65;100972.38;5119782;27;20031;-77
2022/12/15 12:14:56;;;;;;;50.75;18.98;;;;;;;-0.84;87.20;100966.34;5150722;27;20481;-77
2022/12/15 12:17:30;;;;;;;34.10;19.10;;;;;;;-0.75;88.06;100966.59;5149508;27;20477;-77
2022/12/15 12:20:07;;;;;;;39.20;20.52;;;;;;;-0.69;88.69;100964.16;5116993;27;20049;-77
2022/12/15 12:22:43;;;;;;;36.80;20.60;;;;;;;-0.58;88.22;100959.22;5131123;27;20615;-77
2022/12/15 12:25:15;;;;;;;31.00;19.65;;;;;;;-0.58;87.06;100946.22;5138984;27;20118;-77
2022/12/15 12:27:52;;;;;;;34.90;19.52;;;;;;;-0.52;87.35;100947.25;5122671;27;20027;-77
2022/12/15 12:30:24;;;;;;;34.40;19.17;;;;;;;-0.47;86.90;100956.06;5138771;27;20023;-77
2022/12/15 12:33:04;;;;;;;32.30;17.80;;;;;;;-0.48;87.88;100946.47;5153386;27;20026;-78
2022/12/15 12:35:54;;;;;;;28.75;18.42;;;;;;;-0.46;88.27;100941.31;5138239;27;20039;-77
2022/12/15 12:38:32;;;;;;;30.73;18.40;;;;;;;-0.45;88.21;100948.25;5125952;27;20029;-77
2022/12/15 12:41:17;;;;;;;32.67;20.75;;;;;;;-0.45;87.46;100951.75;5133927;27;20042;-78
2022/12/15 12:43:54;;;;;;;33.40;18.48;;;;;;;-0.44;87.80;100944.84;5108279;27;20542;-78
2022/12/15 12:46:19;;;;;;;32.78;18.77;;;;;;;-0.38;87.39;100949.31;5151885;27;20058;-78
2022/12/15 12:48:51;;;;;;;33.80;20.85;;;;;;;-0.40;86.24;100936.25;5124080;27;20636;-78
2022/12/15 12:51:33;;;;;;;38.63;20.67;;;;;;;-0.33;87.22;100940.75;5121179;27;20378;-78
2022/12/15 12:54:00;;;;;;;31.27;18.50;;;;;;;-0.30;87.80;100943.41;5126056;27;20107;-78
2022/12/15 12:56:43;;;;;;;30.50;19.55;;;;;;;-0.29;87.56;100929.59;5121331;27;20031;-77
2022/12/15 12:59:27;;;;;;;29.58;18.17;;;;;;;-0.25;87.90;100939.25;5137129;27;20535;-78
2022/12/15 13:01:54;;;;;;;32.55;19.90;;;;;;;-0.24;87.59;100934.91;5099461;27;20066;-78
2022/12/15 13:04:28;;;;;;;33.80;19.90;;;;;;;-0.16;88.45;100938.56;5135446;27;20485;-77
2022/12/15 13:06:55;;;;;;;33.35;20.17;;;;;;;-0.09;88.62;100930.03;5116938;27;20114;-77
2022/12/15 13:09:23;;;;;;;35.08;19.25;;;;;;;-0.02;88.59;100925.88;5135787;27;20035;-77
2022/12/15 13:11:51;;;;;;;38.53;21.02;;;;;;;0.08;87.76;100921.75;5135479;27;20374;-77
2022/12/15 13:14:40;;;;;;;37.53;21.00;;;;;;;0.24;89.94;100916.00;5135692;27;20048;-77
2022/12/15 13:17:30;;;;;;;37.30;19.25;;;;;;;0.39;86.65;100915.44;5135413;27;20386;-77
2022/12/15 13:19:55;;;;;;;30.98;18.05;;;;;;;0.50;85.18;100911.34;5105657;27;20042;-77
2022/12/15 13:22:34;;;;;;;31.40;19.80;;;;;;;0.58;85.00;100898.47;5137229;27;20473;-77
2022/12/15 13:25:00;;;;;;;30.73;20.25;;;;;;;0.70;83.59;100903.06;5126171;27;20031;-78
2022/12/15 13:27:37;;;;;;;33.03;20.30;;;;;;;0.83;85.76;100899.81;5104956;27;20390;-78
2022/12/15 13:30:08;;;;;;;34.22;21.00;;;;;;;0.93;85.59;100909.56;5120543;27;20048;-78
2022/12/15 13:32:40;;;;;;;33.17;19.23;;;;;;;1.04;85.59;100901.97;5137867;27;20118;-78
2022/12/15 13:35:11;;;;;;;35.05;19.52;;;;;;;1.18;85.15;100900.44;5127507;27;20060;-78
2022/12/15 13:37:49;;;;;;;32.25;18.77;;;;;;;1.25;86.17;100898.81;5120036;27;20058;-78
2022/12/15 13:40:32;;;;;;;33.58;18.65;;;;;;;1.22;84.03;100899.66;5155824;27;20031;-78
2022/12/15 13:43:08;;;;;;;39.83;19.92;;;;;;;1.18;84.25;100889.13;5139857;27;20043;-78
2022/12/15 13:45:36;;;;;;;33.17;19.63;;;;;;;1.29;85.48;100888.47;5121113;27;20114;-78
2022/12/15 13:48:24;;;;;;;35.03;20.85;;;;;;;1.50;86.29;100876.63;5125664;27;20027;-78
2022/12/15 13:50:56;;;;;;;30.58;18.92;;;;;;;1.58;81.94;100874.13;5127018;27;20035;-78